Terminal Aerodrome Forecast
Issued by NWS

Home | Current Version | Previous Version | Text Only | Print | Product List | Glossary On
Versions: 1 2 3 4 5 6 7 8 9 10 11 12 13 14
000
FTUS45 KRIW 281100
TAFWRL
TAF
KWRL 281128Z 2812/2912 VRB05KT P6SM SCT070 BKN150
     FM281700 VRB06KT P6SM VCSH SCT040 BKN070
     FM282100 36015KT 4SM -SN BR SCT012 OVC020=

USA.gov is the U.S. government's official web portal to all federal, state and local government web resources and services.